sensor_id;sensor_type;location;lat;lon;timestamp;temperature;humidity
53752;DHT22;41095;53.090;6.692;2022-07-24T00:01:34;16.10;99.90
53752;DHT22;41095;53.090;6.692;2022-07-24T00:04:00;16.10;99.90
53752;DHT22;41095;53.090;6.692;2022-07-24T00:06:26;16.10;99.90
53752;DHT22;41095;53.090;6.692;2022-07-24T00:08:51;16.10;99.90
53752;DHT22;41095;53.090;6.692;2022-07-24T00:11:17;16.00;99.90
53752;DHT22;41095;53.090;6.692;2022-07-24T00:13:43;16.00;99.90
53752;DHT22;41095;53.090;6.692;2022-07-24T00:16:09;16.00;99.90
53752;DHT22;41095;53.090;6.692;2022-07-24T00:18:35;16.00;99.90
53752;DHT22;41095;53.090;6.692;2022-07-24T00:21:00;16.00;99.90
53752;DHT22;41095;53.090;6.692;2022-07-24T00:23:26;15.90;99.90
53752;DHT22;41095;53.090;6.692;2022-07-24T00:25:53;15.90;99.90
53752;DHT22;41095;53.090;6.692;2022-07-24T00:28:19;15.90;99.90
53752;DHT22;41095;53.090;6.692;2022-07-24T00:30:45;15.90;99.90
53752;DHT22;41095;53.090;6.692;2022-07-24T00:33:11;15.90;99.90
53752;DHT22;41095;53.090;6.692;2022-07-24T00:35:37;15.90;99.90
53752;DHT22;41095;53.090;6.692;2022-07-24T00:38:03;15.90;99.90
53752;DHT22;41095;53.090;6.692;2022-07-24T00:40:29;15.90;99.90
53752;DHT22;41095;53.090;6.692;2022-07-24T00:42:56;15.90;99.90
53752;DHT22;41095;53.090;6.692;2022-07-24T00:45:22;15.90;99.90
53752;DHT22;41095;53.090;6.692;2022-07-24T00:47:48;15.90;99.90
53752;DHT22;41095;53.090;6.692;2022-07-24T00:50:14;15.90;99.90
53752;DHT22;41095;53.090;6.692;2022-07-24T00:52:40;15.90;99.90
53752;DHT22;41095;53.090;6.692;2022-07-24T00:55:06;15.90;99.90
53752;DHT22;41095;53.090;6.692;2022-07-24T00:57:32;15.90;99.90
53752;DHT22;41095;53.090;6.692;2022-07-24T00:59:58;15.90;99.90
53752;DHT22;41095;53.090;6.692;2022-07-24T01:02:24;15.90;99.90
53752;DHT22;41095;53.090;6.692;2022-07-24T01:04:50;15.90;99.90
53752;DHT22;41095;53.090;6.692;2022-07-24T01:07:16;15.90;99.90
53752;DHT22;41095;53.090;6.692;2022-07-24T01:09:43;15.80;99.90
53752;DHT22;41095;53.090;6.692;2022-07-24T01:12:09;15.80;99.90
53752;DHT22;41095;53.090;6.692;2022-07-24T01:14:35;15.80;99.90
53752;DHT22;41095;53.090;6.692;2022-07-24T01:17:01;15.80;99.90
53752;DHT22;41095;53.090;6.692;2022-07-24T01:19:27;15.80;99.90
53752;DHT22;41095;53.090;6.692;2022-07-24T01:21:53;15.70;99.90
53752;DHT22;41095;53.090;6.692;2022-07-24T01:24:20;15.70;99.90
53752;DHT22;41095;53.090;6.692;2022-07-24T01:26:47;15.60;99.90
53752;DHT22;41095;53.090;6.692;2022-07-24T01:29:14;15.60;99.90
53752;DHT22;41095;53.090;6.692;2022-07-24T01:31:40;15.50;99.90
53752;DHT22;41095;53.090;6.692;2022-07-24T01:34:06;15.50;99.90
53752;DHT22;41095;53.090;6.692;2022-07-24T01:36:32;15.50;99.90
53752;DHT22;41095;53.090;6.692;2022-07-24T01:38:58;15.50;99.90
53752;DHT22;41095;53.090;6.692;2022-07-24T01:41:24;15.40;99.90
53752;DHT22;41095;53.090;6.692;2022-07-24T01:43:49;15.40;99.90
53752;DHT22;41095;53.090;6.692;2022-07-24T01:46:15;15.30;99.90
53752;DHT22;41095;53.090;6.692;2022-07-24T01:48:42;15.30;99.90
53752;DHT22;41095;53.090;6.692;2022-07-24T01:51:09;15.20;99.90
53752;DHT22;41095;53.090;6.692;2022-07-24T01:53:35;15.10;99.90
53752;DHT22;41095;53.090;6.692;2022-07-24T01:56:01;15.10;99.90
53752;DHT22;41095;53.090;6.692;2022-07-24T01:58:27;15.00;99.90
53752;DHT22;41095;53.090;6.692;2022-07-24T02:00:53;15.00;99.90
53752;DHT22;41095;53.090;6.692;2022-07-24T02:03:19;14.90;99.90
53752;DHT22;41095;53.090;6.692;2022-07-24T02:05:45;14.90;99.90
53752;DHT22;41095;53.090;6.692;2022-07-24T02:08:11;14.80;99.90
53752;DHT22;41095;53.090;6.692;2022-07-24T02:10:37;14.80;99.90
53752;DHT22;41095;53.090;6.692;2022-07-24T02:13:03;14.80;99.90
53752;DHT22;41095;53.090;6.692;2022-07-24T02:15:29;14.80;99.90
53752;DHT22;41095;53.090;6.692;2022-07-24T02:17:58;14.80;99.90
53752;DHT22;41095;53.090;6.692;2022-07-24T02:20:24;14.80;99.90
53752;DHT22;41095;53.090;6.692;2022-07-24T02:22:50;14.80;99.90
53752;DHT22;41095;53.090;6.692;2022-07-24T02:25:16;14.80;99.90
53752;DHT22;41095;53.090;6.692;2022-07-24T02:27:42;14.80;99.90
53752;DHT22;41095;53.090;6.692;2022-07-24T02:30:14;14.80;99.90
53752;DHT22;41095;53.090;6.692;2022-07-24T02:32:39;14.90;99.90
53752;DHT22;41095;53.090;6.692;2022-07-24T02:35:06;14.90;99.90
53752;DHT22;41095;53.090;6.692;2022-07-24T02:37:34;14.80;99.90
53752;DHT22;41095;53.090;6.692;2022-07-24T02:40:00;14.80;99.90
53752;DHT22;41095;53.090;6.692;2022-07-24T02:42:26;14.80;99.90
53752;DHT22;41095;53.090;6.692;2022-07-24T02:44:51;14.90;99.90
53752;DHT22;41095;53.090;6.692;2022-07-24T02:47:17;14.90;99.90
53752;DHT22;41095;53.090;6.692;2022-07-24T02:49:43;14.80;99.90
53752;DHT22;41095;53.090;6.692;2022-07-24T02:52:08;14.80;99.90
53752;DHT22;41095;53.090;6.692;2022-07-24T02:54:34;14.70;99.90
53752;DHT22;41095;53.090;6.692;2022-07-24T02:57:00;14.70;99.90
53752;DHT22;41095;53.090;6.692;2022-07-24T02:59:25;14.70;99.90
53752;DHT22;41095;53.090;6.692;2022-07-24T03:01:51;14.70;99.90
53752;DHT22;41095;53.090;6.692;2022-07-24T03:04:17;14.60;99.90
53752;DHT22;41095;53.090;6.692;2022-07-24T03:06:42;14.60;99.90
53752;DHT22;41095;53.090;6.692;2022-07-24T03:09:08;14.70;99.90
53752;DHT22;41095;53.090;6.692;2022-07-24T03:11:33;14.60;99.90
53752;DHT22;41095;53.090;6.692;2022-07-24T03:13:59;14.60;99.90
53752;DHT22;41095;53.090;6.692;2022-07-24T03:16:25;14.60;99.90
53752;DHT22;41095;53.090;6.692;2022-07-24T03:18:50;14.60;99.90
53752;DHT22;41095;53.090;6.692;2022-07-24T03:21:17;14.60;99.90
53752;DHT22;41095;53.090;6.692;2022-07-24T03:23:43;14.60;99.90
53752;DHT22;41095;53.090;6.692;2022-07-24T03:26:09;14.60;99.90
53752;DHT22;41095;53.090;6.692;2022-07-24T03:28:35;14.60;99.90
53752;DHT22;41095;53.090;6.692;2022-07-24T03:31:01;14.60;99.90
53752;DHT22;41095;53.090;6.692;2022-07-24T03:33:27;14.60;99.90
53752;DHT22;41095;53.090;6.692;2022-07-24T03:35:54;14.60;99.90
53752;DHT22;41095;53.090;6.692;2022-07-24T03:38:20;14.50;99.90
53752;DHT22;41095;53.090;6.692;2022-07-24T03:40:45;14.60;99.90
53752;DHT22;41095;53.090;6.692;2022-07-24T03:43:11;14.60;99.90
53752;DHT22;41095;53.090;6.692;2022-07-24T03:45:38;14.60;99.90
53752;DHT22;41095;53.090;6.692;2022-07-24T03:48:04;14.60;99.90
53752;DHT22;41095;53.090;6.692;2022-07-24T03:50:30;14.60;99.90
53752;DHT22;41095;53.090;6.692;2022-07-24T03:52:56;14.60;99.90
53752;DHT22;41095;53.090;6.692;2022-07-24T03:55:21;14.70;99.90
53752;DHT22;41095;53.090;6.692;2022-07-24T03:57:47;14.70;99.90
53752;DHT22;41095;53.090;6.692;2022-07-24T04:00:13;14.70;99.90
53752;DHT22;41095;53.090;6.692;2022-07-24T04:02:39;14.80;99.90
53752;DHT22;41095;53.090;6.692;2022-07-24T04:05:05;14.80;99.90
53752;DHT22;41095;53.090;6.692;2022-07-24T04:07:35;14.80;99.90
53752;DHT22;41095;53.090;6.692;2022-07-24T04:10:01;14.90;99.90
53752;DHT22;41095;53.090;6.692;2022-07-24T04:12:27;14.80;99.90
53752;DHT22;41095;53.090;6.692;2022-07-24T04:14:53;14.80;99.90
53752;DHT22;41095;53.090;6.692;2022-07-24T04:17:18;14.90;99.90
53752;DHT22;41095;53.090;6.692;2022-07-24T04:19:44;14.90;99.90
53752;DHT22;41095;53.090;6.692;2022-07-24T04:22:09;14.90;99.90
53752;DHT22;41095;53.090;6.692;2022-07-24T04:24:35;14.90;99.90
53752;DHT22;41095;53.090;6.692;2022-07-24T04:27:01;14.90;99.90
53752;DHT22;41095;53.090;6.692;2022-07-24T04:29:26;14.90;99.90
53752;DHT22;41095;53.090;6.692;2022-07-24T04:31:52;15.10;99.90
53752;DHT22;41095;53.090;6.692;2022-07-24T04:34:18;14.90;99.90
53752;DHT22;41095;53.090;6.692;2022-07-24T04:36:43;15.00;99.90
53752;DHT22;41095;53.090;6.692;2022-07-24T04:39:09;15.00;99.90
53752;DHT22;41095;53.090;6.692;2022-07-24T04:41:35;15.00;99.90
53752;DHT22;41095;53.090;6.692;2022-07-24T04:44:01;15.00;99.90
53752;DHT22;41095;53.090;6.692;2022-07-24T04:46:27;15.00;99.90
53752;DHT22;41095;53.090;6.692;2022-07-24T04:48:52;15.10;99.90
53752;DHT22;41095;53.090;6.692;2022-07-24T04:51:18;15.10;99.90
53752;DHT22;41095;53.090;6.692;2022-07-24T04:53:44;15.10;99.90
53752;DHT22;41095;53.090;6.692;2022-07-24T04:56:10;15.20;99.90
53752;DHT22;41095;53.090;6.692;2022-07-24T04:58:35;15.20;99.90
53752;DHT22;41095;53.090;6.692;2022-07-24T05:01:01;15.20;99.90
53752;DHT22;41095;53.090;6.692;2022-07-24T05:03:27;15.30;99.90
53752;DHT22;41095;53.090;6.692;2022-07-24T05:05:53;15.30;99.90
53752;DHT22;41095;53.090;6.692;2022-07-24T05:08:18;15.40;99.90
53752;DHT22;41095;53.090;6.692;2022-07-24T05:10:44;15.50;99.90
53752;DHT22;41095;53.090;6.692;2022-07-24T05:13:09;15.50;99.90
53752;DHT22;41095;53.090;6.692;2022-07-24T05:15:35;15.60;99.90
53752;DHT22;41095;53.090;6.692;2022-07-24T05:18:01;15.60;99.90
53752;DHT22;41095;53.090;6.692;2022-07-24T05:20:26;15.60;99.90
53752;DHT22;41095;53.090;6.692;2022-07-24T05:22:52;15.70;99.90
53752;DHT22;41095;53.090;6.692;2022-07-24T05:25:18;15.80;99.90
53752;DHT22;41095;53.090;6.692;2022-07-24T05:27:44;15.90;99.90
53752;DHT22;41095;53.090;6.692;2022-07-24T05:30:10;16.10;99.90
53752;DHT22;41095;53.090;6.692;2022-07-24T05:32:36;16.20;99.90
53752;DHT22;41095;53.090;6.692;2022-07-24T05:35:02;16.30;99.90
53752;DHT22;41095;53.090;6.692;2022-07-24T05:37:28;16.50;99.90
53752;DHT22;41095;53.090;6.692;2022-07-24T05:39:53;16.70;99.90
53752;DHT22;41095;53.090;6.692;2022-07-24T05:42:19;17.00;99.90
53752;DHT22;41095;53.090;6.692;2022-07-24T05:44:45;17.30;99.90
53752;DHT22;41095;53.090;6.692;2022-07-24T05:47:10;17.50;99.90
53752;DHT22;41095;53.090;6.692;2022-07-24T05:49:36;17.80;99.90
53752;DHT22;41095;53.090;6.692;2022-07-24T05:52:02;18.10;99.90
53752;DHT22;41095;53.090;6.692;2022-07-24T05:54:28;18.20;99.90
53752;DHT22;41095;53.090;6.692;2022-07-24T05:56:53;18.40;99.90
53752;DHT22;41095;53.090;6.692;2022-07-24T05:59:19;18.50;99.90
53752;DHT22;41095;53.090;6.692;2022-07-24T06:01:45;18.50;99.90
53752;DHT22;41095;53.090;6.692;2022-07-24T06:04:10;18.60;99.90
53752;DHT22;41095;53.090;6.692;2022-07-24T06:06:36;18.50;99.90
53752;DHT22;41095;53.090;6.692;2022-07-24T06:09:03;18.40;99.90
53752;DHT22;41095;53.090;6.692;2022-07-24T06:11:29;18.40;99.90
53752;DHT22;41095;53.090;6.692;2022-07-24T06:13:55;18.50;99.90
53752;DHT22;41095;53.090;6.692;2022-07-24T06:16:20;18.60;99.90
53752;DHT22;41095;53.090;6.692;2022-07-24T06:18:46;18.70;99.90
53752;DHT22;41095;53.090;6.692;2022-07-24T06:21:12;18.90;99.90
53752;DHT22;41095;53.090;6.692;2022-07-24T06:23:37;19.00;99.90
53752;DHT22;41095;53.090;6.692;2022-07-24T06:26:03;19.20;99.90
53752;DHT22;41095;53.090;6.692;2022-07-24T06:28:29;19.40;99.90
53752;DHT22;41095;53.090;6.692;2022-07-24T06:30:55;19.70;99.90
53752;DHT22;41095;53.090;6.692;2022-07-24T06:33:21;19.90;99.90
53752;DHT22;41095;53.090;6.692;2022-07-24T06:35:46;20.10;99.90
53752;DHT22;41095;53.090;6.692;2022-07-24T06:38:12;20.30;99.90
53752;DHT22;41095;53.090;6.692;2022-07-24T06:40:38;20.70;99.90
53752;DHT22;41095;53.090;6.692;2022-07-24T06:43:04;21.60;99.90
53752;DHT22;41095;53.090;6.692;2022-07-24T06:45:30;22.60;99.90
53752;DHT22;41095;53.090;6.692;2022-07-24T06:47:59;23.10;99.90
53752;DHT22;41095;53.090;6.692;2022-07-24T06:50:25;23.60;99.90
53752;DHT22;41095;53.090;6.692;2022-07-24T06:52:51;23.70;99.90
53752;DHT22;41095;53.090;6.692;2022-07-24T06:55:16;23.90;99.90
53752;DHT22;41095;53.090;6.692;2022-07-24T06:57:42;24.40;99.90
53752;DHT22;41095;53.090;6.692;2022-07-24T07:00:09;25.00;99.90
53752;DHT22;41095;53.090;6.692;2022-07-24T07:02:36;25.40;99.90
53752;DHT22;41095;53.090;6.692;2022-07-24T07:05:01;25.90;99.90
53752;DHT22;41095;53.090;6.692;2022-07-24T07:07:27;26.20;99.30
53752;DHT22;41095;53.090;6.692;2022-07-24T07:09:53;26.80;96.60
53752;DHT22;41095;53.090;6.692;2022-07-24T07:12:19;27.10;96.70
53752;DHT22;41095;53.090;6.692;2022-07-24T07:14:45;26.90;96.60
53752;DHT22;41095;53.090;6.692;2022-07-24T07:17:10;26.80;96.30
53752;DHT22;41095;53.090;6.692;2022-07-24T07:19:36;27.30;96.50
53752;DHT22;41095;53.090;6.692;2022-07-24T07:22:02;27.30;95.80
53752;DHT22;41095;53.090;6.692;2022-07-24T07:24:27;27.50;95.80
53752;DHT22;41095;53.090;6.692;2022-07-24T07:26:53;28.10;95.00
53752;DHT22;41095;53.090;6.692;2022-07-24T07:29:19;28.30;94.60
53752;DHT22;41095;53.090;6.692;2022-07-24T07:31:44;28.00;94.30
53752;DHT22;41095;53.090;6.692;2022-07-24T07:34:10;28.20;92.90
53752;DHT22;41095;53.090;6.692;2022-07-24T07:36:36;28.50;92.60
53752;DHT22;41095;53.090;6.692;2022-07-24T07:39:02;28.60;93.30
53752;DHT22;41095;53.090;6.692;2022-07-24T07:41:28;29.20;92.50
53752;DHT22;41095;53.090;6.692;2022-07-24T07:43:54;29.10;92.00
53752;DHT22;41095;53.090;6.692;2022-07-24T07:46:19;29.10;91.60
53752;DHT22;41095;53.090;6.692;2022-07-24T07:48:45;29.40;90.00
53752;DHT22;41095;53.090;6.692;2022-07-24T07:51:11;29.40;91.10
53752;DHT22;41095;53.090;6.692;2022-07-24T07:53:36;28.70;91.10
53752;DHT22;41095;53.090;6.692;2022-07-24T07:56:02;28.10;91.40
53752;DHT22;41095;53.090;6.692;2022-07-24T07:58:29;27.60;91.70
53752;DHT22;41095;53.090;6.692;2022-07-24T08:00:55;27.10;91.80
53752;DHT22;41095;53.090;6.692;2022-07-24T08:03:20;26.70;92.10
53752;DHT22;41095;53.090;6.692;2022-07-24T08:05:46;26.40;91.80
53752;DHT22;41095;53.090;6.692;2022-07-24T08:08:12;26.30;91.90
53752;DHT22;41095;53.090;6.692;2022-07-24T08:10:38;26.80;92.10
53752;DHT22;41095;53.090;6.692;2022-07-24T08:13:04;27.90;91.50
53752;DHT22;41095;53.090;6.692;2022-07-24T08:15:30;28.80;90.40
53752;DHT22;41095;53.090;6.692;2022-07-24T08:17:57;29.50;89.80
53752;DHT22;41095;53.090;6.692;2022-07-24T08:20:24;30.10;88.50
53752;DHT22;41095;53.090;6.692;2022-07-24T08:22:50;30.40;87.10
53752;DHT22;41095;53.090;6.692;2022-07-24T08:25:17;30.20;86.20
53752;DHT22;41095;53.090;6.692;2022-07-24T08:27:43;30.10;85.60
53752;DHT22;41095;53.090;6.692;2022-07-24T08:30:09;29.20;84.40
53752;DHT22;41095;53.090;6.692;2022-07-24T08:32:35;28.80;82.10
53752;DHT22;41095;53.090;6.692;2022-07-24T08:35:01;28.80;85.50
53752;DHT22;41095;53.090;6.692;2022-07-24T08:37:27;29.10;85.60
53752;DHT22;41095;53.090;6.692;2022-07-24T08:39:53;29.00;85.20
53752;DHT22;41095;53.090;6.692;2022-07-24T08:42:20;29.00;85.60
53752;DHT22;41095;53.090;6.692;2022-07-24T08:44:46;28.80;85.20
53752;DHT22;41095;53.090;6.692;2022-07-24T08:47:15;28.80;84.60
53752;DHT22;41095;53.090;6.692;2022-07-24T08:49:41;29.00;84.20
53752;DHT22;41095;53.090;6.692;2022-07-24T08:52:09;29.10;85.00
53752;DHT22;41095;53.090;6.692;2022-07-24T08:54:36;29.00;84.70
53752;DHT22;41095;53.090;6.692;2022-07-24T08:57:03;28.60;83.10
53752;DHT22;41095;53.090;6.692;2022-07-24T08:59:29;28.50;84.30
53752;DHT22;41095;53.090;6.692;2022-07-24T09:01:55;28.40;85.40
53752;DHT22;41095;53.090;6.692;2022-07-24T09:05:00;28.30;85.40
53752;DHT22;41095;53.090;6.692;2022-07-24T09:07:28;28.40;84.50
53752;DHT22;41095;53.090;6.692;2022-07-24T09:12:24;28.60;85.20
53752;DHT22;41095;53.090;6.692;2022-07-24T09:14:50;29.30;84.30
53752;DHT22;41095;53.090;6.692;2022-07-24T09:17:18;29.90;84.60
53752;DHT22;41095;53.090;6.692;2022-07-24T09:22:37;29.80;81.00
53752;DHT22;41095;53.090;6.692;2022-07-24T09:27:34;29.60;83.70
53752;DHT22;41095;53.090;6.692;2022-07-24T09:30:00;29.40;81.60
53752;DHT22;41095;53.090;6.692;2022-07-24T09:32:26;29.00;82.90
53752;DHT22;41095;53.090;6.692;2022-07-24T09:34:53;28.70;83.90
53752;DHT22;41095;53.090;6.692;2022-07-24T09:37:20;28.50;83.90
53752;DHT22;41095;53.090;6.692;2022-07-24T09:39:46;28.70;83.80
53752;DHT22;41095;53.090;6.692;2022-07-24T09:42:12;29.10;83.20
53752;DHT22;41095;53.090;6.692;2022-07-24T09:44:38;29.20;82.80
53752;DHT22;41095;53.090;6.692;2022-07-24T09:47:07;29.30;82.80
53752;DHT22;41095;53.090;6.692;2022-07-24T09:49:34;29.90;82.90
53752;DHT22;41095;53.090;6.692;2022-07-24T09:52:19;30.40;82.70
53752;DHT22;41095;53.090;6.692;2022-07-24T09:54:47;30.70;80.30
53752;DHT22;41095;53.090;6.692;2022-07-24T10:02:28;31.00;80.50
53752;DHT22;41095;53.090;6.692;2022-07-24T10:04:55;31.00;79.70
53752;DHT22;41095;53.090;6.692;2022-07-24T10:07:22;30.80;79.40
53752;DHT22;41095;53.090;6.692;2022-07-24T10:09:50;31.10;81.80
53752;DHT22;41095;53.090;6.692;2022-07-24T10:12:20;31.40;81.80
53752;DHT22;41095;53.090;6.692;2022-07-24T10:14:48;31.60;81.00
53752;DHT22;41095;53.090;6.692;2022-07-24T10:17:15;31.70;79.70
53752;DHT22;41095;53.090;6.692;2022-07-24T10:19:49;32.10;80.70
53752;DHT22;41095;53.090;6.692;2022-07-24T10:22:17;32.30;79.50
53752;DHT22;41095;53.090;6.692;2022-07-24T10:24:57;32.20;80.10
53752;DHT22;41095;53.090;6.692;2022-07-24T10:27:26;32.40;77.90
53752;DHT22;41095;53.090;6.692;2022-07-24T10:29:54;32.30;79.40
53752;DHT22;41095;53.090;6.692;2022-07-24T10:32:24;32.20;78.40
53752;DHT22;41095;53.090;6.692;2022-07-24T10:35:11;32.10;77.00
53752;DHT22;41095;53.090;6.692;2022-07-24T10:37:43;32.00;76.80
53752;DHT22;41095;53.090;6.692;2022-07-24T10:40:28;31.60;76.30
53752;DHT22;41095;53.090;6.692;2022-07-24T10:45:32;31.20;76.00
53752;DHT22;41095;53.090;6.692;2022-07-24T10:48:07;30.80;77.60
53752;DHT22;41095;53.090;6.692;2022-07-24T10:56:25;30.50;76.70
53752;DHT22;41095;53.090;6.692;2022-07-24T10:59:06;30.20;76.80
53752;DHT22;41095;53.090;6.692;2022-07-24T11:01:38;30.10;78.20
53752;DHT22;41095;53.090;6.692;2022-07-24T11:06:51;29.90;78.20
53752;DHT22;41095;53.090;6.692;2022-07-24T11:09:19;29.70;79.50
53752;DHT22;41095;53.090;6.692;2022-07-24T11:20:14;29.60;78.80
53752;DHT22;41095;53.090;6.692;2022-07-24T11:22:52;29.60;78.50
53752;DHT22;41095;53.090;6.692;2022-07-24T11:25:25;29.70;78.80
53752;DHT22;41095;53.090;6.692;2022-07-24T11:30:26;30.10;79.20
53752;DHT22;41095;53.090;6.692;2022-07-24T11:32:52;30.10;79.20
53752;DHT22;41095;53.090;6.692;2022-07-24T11:35:27;30.20;78.40
53752;DHT22;41095;53.090;6.692;2022-07-24T11:37:53;29.90;76.40
53752;DHT22;41095;53.090;6.692;2022-07-24T11:40:21;29.90;78.00
53752;DHT22;41095;53.090;6.692;2022-07-24T11:42:46;29.90;78.30
53752;DHT22;41095;53.090;6.692;2022-07-24T11:45:18;30.00;78.10
53752;DHT22;41095;53.090;6.692;2022-07-24T11:47:45;30.00;78.30
53752;DHT22;41095;53.090;6.692;2022-07-24T11:50:11;30.00;77.70
53752;DHT22;41095;53.090;6.692;2022-07-24T11:52:39;30.00;78.00
53752;DHT22;41095;53.090;6.692;2022-07-24T11:55:09;30.00;77.50
53752;DHT22;41095;53.090;6.692;2022-07-24T11:57:37;30.00;76.90
53752;DHT22;41095;53.090;6.692;2022-07-24T12:00:07;30.00;76.70
53752;DHT22;41095;53.090;6.692;2022-07-24T12:02:35;30.20;77.50
53752;DHT22;41095;53.090;6.692;2022-07-24T12:05:00;30.10;76.60
53752;DHT22;41095;53.090;6.692;2022-07-24T12:07:26;29.90;76.40
53752;DHT22;41095;53.090;6.692;2022-07-24T12:10:00;29.90;76.40
53752;DHT22;41095;53.090;6.692;2022-07-24T12:12:29;30.00;78.50
53752;DHT22;41095;53.090;6.692;2022-07-24T12:15:06;30.00;76.60
53752;DHT22;41095;53.090;6.692;2022-07-24T12:18:05;30.00;76.60
53752;DHT22;41095;53.090;6.692;2022-07-24T12:22:59;30.20;77.20
53752;DHT22;41095;53.090;6.692;2022-07-24T12:25:25;30.30;77.00
53752;DHT22;41095;53.090;6.692;2022-07-24T12:28:10;30.30;76.40
53752;DHT22;41095;53.090;6.692;2022-07-24T12:30:48;30.20;75.20
53752;DHT22;41095;53.090;6.692;2022-07-24T12:38:30;30.20;76.10
53752;DHT22;41095;53.090;6.692;2022-07-24T12:41:12;30.20;76.80
53752;DHT22;41095;53.090;6.692;2022-07-24T12:43:50;30.20;76.50
53752;DHT22;41095;53.090;6.692;2022-07-24T12:46:18;30.10;75.50
53752;DHT22;41095;53.090;6.692;2022-07-24T12:48:58;30.40;76.90
53752;DHT22;41095;53.090;6.692;2022-07-24T12:51:24;30.60;76.40
53752;DHT22;41095;53.090;6.692;2022-07-24T12:53:53;30.70;76.50
53752;DHT22;41095;53.090;6.692;2022-07-24T12:56:20;30.80;76.00
53752;DHT22;41095;53.090;6.692;2022-07-24T12:58:49;30.90;75.50
53752;DHT22;41095;53.090;6.692;2022-07-24T13:01:15;30.90;75.80
53752;DHT22;41095;53.090;6.692;2022-07-24T13:03:41;31.00;75.60
53752;DHT22;41095;53.090;6.692;2022-07-24T13:06:08;31.10;76.00
53752;DHT22;41095;53.090;6.692;2022-07-24T13:08:34;31.30;75.40
53752;DHT22;41095;53.090;6.692;2022-07-24T13:11:00;31.40;75.70
53752;DHT22;41095;53.090;6.692;2022-07-24T13:13:26;31.50;76.00
53752;DHT22;41095;53.090;6.692;2022-07-24T13:15:52;31.40;75.00
53752;DHT22;41095;53.090;6.692;2022-07-24T13:18:18;31.30;74.40
53752;DHT22;41095;53.090;6.692;2022-07-24T13:20:44;31.20;74.30
53752;DHT22;41095;53.090;6.692;2022-07-24T13:23:09;31.30;74.50
53752;DHT22;41095;53.090;6.692;2022-07-24T13:25:35;31.20;74.20
53752;DHT22;41095;53.090;6.692;2022-07-24T13:28:01;31.40;74.60
53752;DHT22;41095;53.090;6.692;2022-07-24T13:30:27;31.50;74.50
53752;DHT22;41095;53.090;6.692;2022-07-24T13:32:52;31.30;74.30
53752;DHT22;41095;53.090;6.692;2022-07-24T13:35:18;31.30;74.00
53752;DHT22;41095;53.090;6.692;2022-07-24T13:37:44;31.30;74.20
53752;DHT22;41095;53.090;6.692;2022-07-24T13:40:09;31.30;74.00
53752;DHT22;41095;53.090;6.692;2022-07-24T13:42:37;31.20;74.30
53752;DHT22;41095;53.090;6.692;2022-07-24T13:45:04;31.20;74.50
53752;DHT22;41095;53.090;6.692;2022-07-24T13:47:29;31.00;73.60
53752;DHT22;41095;53.090;6.692;2022-07-24T13:49:55;31.00;74.00
53752;DHT22;41095;53.090;6.692;2022-07-24T13:52:21;31.10;74.40
53752;DHT22;41095;53.090;6.692;2022-07-24T13:54:47;31.10;74.10
53752;DHT22;41095;53.090;6.692;2022-07-24T13:57:13;31.10;73.70
53752;DHT22;41095;53.090;6.692;2022-07-24T13:59:39;31.00;73.30
53752;DHT22;41095;53.090;6.692;2022-07-24T14:02:04;31.10;73.30
53752;DHT22;41095;53.090;6.692;2022-07-24T14:04:30;31.10;73.50
53752;DHT22;41095;53.090;6.692;2022-07-24T14:06:57;31.20;73.30
53752;DHT22;41095;53.090;6.692;2022-07-24T14:09:24;31.30;73.20
53752;DHT22;41095;53.090;6.692;2022-07-24T14:11:50;31.40;72.60
53752;DHT22;41095;53.090;6.692;2022-07-24T14:14:16;31.20;73.00
53752;DHT22;41095;53.090;6.692;2022-07-24T14:16:42;31.20;73.00
53752;DHT22;41095;53.090;6.692;2022-07-24T14:19:08;31.30;73.40
53752;DHT22;41095;53.090;6.692;2022-07-24T14:21:34;31.40;73.50
53752;DHT22;41095;53.090;6.692;2022-07-24T14:23:59;31.40;72.70
53752;DHT22;41095;53.090;6.692;2022-07-24T14:26:25;31.40;72.50
53752;DHT22;41095;53.090;6.692;2022-07-24T14:28:51;31.40;72.70
53752;DHT22;41095;53.090;6.692;2022-07-24T14:31:16;31.40;72.90
53752;DHT22;41095;53.090;6.692;2022-07-24T14:33:42;31.30;72.90
53752;DHT22;41095;53.090;6.692;2022-07-24T14:36:08;31.40;73.30
53752;DHT22;41095;53.090;6.692;2022-07-24T14:38:34;31.40;72.60
53752;DHT22;41095;53.090;6.692;2022-07-24T14:40:59;31.30;72.20
53752;DHT22;41095;53.090;6.692;2022-07-24T14:43:25;31.40;73.00
53752;DHT22;41095;53.090;6.692;2022-07-24T14:45:50;31.40;72.60
53752;DHT22;41095;53.090;6.692;2022-07-24T14:48:16;31.40;72.40
53752;DHT22;41095;53.090;6.692;2022-07-24T14:50:42;31.30;72.40
53752;DHT22;41095;53.090;6.692;2022-07-24T14:53:08;31.30;72.30
53752;DHT22;41095;53.090;6.692;2022-07-24T14:55:33;31.40;72.60
53752;DHT22;41095;53.090;6.692;2022-07-24T14:57:59;31.40;72.40
53752;DHT22;41095;53.090;6.692;2022-07-24T15:00:25;31.20;72.00
53752;DHT22;41095;53.090;6.692;2022-07-24T15:02:51;31.20;72.50
53752;DHT22;41095;53.090;6.692;2022-07-24T15:05:16;31.10;72.70
53752;DHT22;41095;53.090;6.692;2022-07-24T15:07:42;31.10;72.90
53752;DHT22;41095;53.090;6.692;2022-07-24T15:10:08;31.10;73.00
53752;DHT22;41095;53.090;6.692;2022-07-24T15:12:34;31.00;72.50
53752;DHT22;41095;53.090;6.692;2022-07-24T15:14:59;31.00;72.70
53752;DHT22;41095;53.090;6.692;2022-07-24T15:17:25;31.00;72.90
53752;DHT22;41095;53.090;6.692;2022-07-24T15:19:50;31.00;72.00
53752;DHT22;41095;53.090;6.692;2022-07-24T15:22:16;31.00;72.40
53752;DHT22;41095;53.090;6.692;2022-07-24T15:24:42;31.00;73.20
53752;DHT22;41095;53.090;6.692;2022-07-24T15:27:07;31.00;72.70
53752;DHT22;41095;53.090;6.692;2022-07-24T15:29:33;30.90;72.60
53752;DHT22;41095;53.090;6.692;2022-07-24T15:31:59;30.80;72.90
53752;DHT22;41095;53.090;6.692;2022-07-24T15:34:26;30.90;73.10
53752;DHT22;41095;53.090;6.692;2022-07-24T15:36:52;30.90;72.60
53752;DHT22;41095;53.090;6.692;2022-07-24T15:39:17;30.80;72.60
53752;DHT22;41095;53.090;6.692;2022-07-24T15:41:43;30.80;73.00
53752;DHT22;41095;53.090;6.692;2022-07-24T15:44:09;30.90;73.20
53752;DHT22;41095;53.090;6.692;2022-07-24T15:46:35;31.00;73.10
53752;DHT22;41095;53.090;6.692;2022-07-24T15:49:04;31.00;73.30
53752;DHT22;41095;53.090;6.692;2022-07-24T15:51:31;31.00;72.90
53752;DHT22;41095;53.090;6.692;2022-07-24T15:53:57;30.80;72.80
53752;DHT22;41095;53.090;6.692;2022-07-24T15:56:23;30.70;72.80
53752;DHT22;41095;53.090;6.692;2022-07-24T15:58:48;30.70;73.10
53752;DHT22;41095;53.090;6.692;2022-07-24T16:01:14;30.70;73.40
53752;DHT22;41095;53.090;6.692;2022-07-24T16:03:39;30.70;73.40
53752;DHT22;41095;53.090;6.692;2022-07-24T16:06:05;30.60;73.30
53752;DHT22;41095;53.090;6.692;2022-07-24T16:08:31;30.60;73.60
53752;DHT22;41095;53.090;6.692;2022-07-24T16:10:56;30.60;73.90